Webcam Flughafen St.Gallen-Altenrhein

Live-Bilder und Zeitraffer LSZR / ACH.

 

Live aus Altenrhein
LIVE
LSZR 221120Z 28009KT 9999 SCT013 09/06 Q1027 NOSIG RMK H
Zeitraffer heute
2018-10-22 00:13:56
LSZR 212150Z AUTO 21003KT CAVOK 07/06 Q1025
Zeitraffer gestern
2018-10-21 00:14:12
LSZR 202150Z AUTO VRB01KT 2800 BR NCD 09/09 Q1028
Zeitraffer vor 3 Tagen
2018-10-19 00:14:12
LSZR 182150Z AUTO 21003KT 7000 NCD 11/09 Q1019